CheckWX is a tool to help pilots better visualize weather data.  It is not intended as a substitute for an official pre-flight weather briefing.

21:22:55 UTC

LIRF TAF
Leonardo da Vinci–Fiumicino Airport
Rome, Italy
TAF LIRF 091700Z 0918/1024 32010KT 9999 SCT030 TEMPO 0918/0920 SHRA BECMG 0919/0921 02010KT BECMG 1005/1007 02015KT BECMG 1011/1013 02018G30KT

Dec-9@
18:00 UTC

Dec-9 @ 18:00 UTC

Dec-9@
19:00 UTC

Dec-9 @ 19:00 UTC

TAF LIRF 091700Z 0918/1024 32010KT 9999 SCT030

Expired

Wind
  • 320° at 10 KTS
Cloud Levels
  • Scattered at 3,000' AGL

Dec-9@
18:00 UTC

Dec-9 @ 18:00 UTC

Dec-9@
20:00 UTC

Dec-9 @ 20:00 UTC

TEMPO 0918/0920 SHRA

Expired

Conditions
Rain

Dec-9@
19:00 UTC

Dec-9 @ 19:00 UTC

Dec-10@
05:00 UTC

Dec-10 @ 05:00 UTC

BECMG 0919/0921 02010KT

Becoming

Becoming Conditions expected by Mon, Dec 9, 2019 @ 21:00 UTC

Wind
  • 020° at 10 KTS
Cloud Levels
  • Scattered at 3,000' AGL

Dec-10@
05:00 UTC

Dec-10 @ 05:00 UTC

Dec-10@
11:00 UTC

Dec-10 @ 11:00 UTC

BECMG 1005/1007 02015KT

Becoming

Becoming Conditions expected by Tue, Dec 10, 2019 @ 07:00 UTC

Wind
  • 020° at 15 KTS
Cloud Levels
  • Scattered at 3,000' AGL

Dec-10@
11:00 UTC

Dec-10 @ 11:00 UTC

Dec-11@
00:00 UTC

Dec-11 @ 00:00 UTC

BECMG 1011/1013 02018G30KT

Becoming

Becoming Conditions expected by Tue, Dec 10, 2019 @ 13:00 UTC

Wind
  • 020° at 18 KTS
  • {Gusting to 30 KTS
Cloud Levels
  • Scattered at 3,000' AGL